This is the latest recevied weather packets stored in our database for station/object KA8OAD-10. If no packets are shown the sender has not sent any weather packets the latest 10 day(s).
| Time | Temp. | Humidity | Pressure | Rain* | Wind** | Luminosity | Snow |
|---|---|---|---|---|---|---|---|
| 1777496253 | 11.11° C | 91% | 1007 hPa | 0 mm | - | 56 W/m² | - |
| 1777494750 | 11.11° C | 91% | 1006.8 hPa | 0 mm | - | 49 W/m² | - |
| 1777494449 | 11.11° C | 91% | 1006.8 hPa | 0 mm | - | 65 W/m² | - |
| 1777494153 | 11.11° C | 91% | 1006.6 hPa | 0 mm | - | 69 W/m² | - |
| 1777492951 | 11.67° C | 90% | 1006.4 hPa | 0 mm | - | 90 W/m² | - |
| 1777492651 | 12.22° C | 91% | 1006.4 hPa | 0 mm | - | 77 W/m² | - |
| 1777490550 | 12.78° C | 91% | 1006.3 hPa | 0.25 mm | - | 121 W/m² | - |
| 1777490250 | 12.78° C | 92% | 1006.3 hPa | 0.25 mm | - | 132 W/m² | - |
| 1777489052 | 12.78° C | 92% | 1006.5 hPa | 0.51 mm | - | 253 W/m² | - |
| 1777487849 | 12.78° C | 91% | 1006.5 hPa | 0.51 mm | - | 151 W/m² | - |
| 1777487252 | 12.78° C | 91% | 1006.5 hPa | 0.76 mm | - | 121 W/m² | - |
| 1777486350 | 13.33° C | 91% | 1006.7 hPa | 0.25 mm | - | 47 W/m² | - |
| 1777486050 | 13.33° C | 91% | 1006.8 hPa | 0.25 mm | - | 54 W/m² | - |
| 1777484251 | 13.89° C | 92% | 1006.4 hPa | 0 mm | - | 90 W/m² | - |
| 1777483950 | 13.89° C | 92% | 1006.5 hPa | 0 mm | - | 58 W/m² | - |
| 1777483353 | 13.89° C | 92% | 1006.7 hPa | 0.25 mm | - | 65 W/m² | - |
| 1777482752 | 13.89° C | 92% | 1006.8 hPa | 1.27 mm | - | 63 W/m² | - |
| 1777478552 | 12.78° C | 91% | 1007.9 hPa | 0.51 mm | - | 14 W/m² | - |
| 1777475250 | 12.78° C | 92% | 1007.8 hPa | 0 mm | - | 105 W/m² | - |
| 1777473150 | 12.22° C | 91% | 1008.4 hPa | 1.78 mm | - | 44 W/m² | - |
| 1777471351 | 12.22° C | 91% | 1008.7 hPa | 1.78 mm | - | 54 W/m² | - |
| 1777469251 | 12.22° C | 91% | 1008.7 hPa | 0 mm | - | 5 W/m² | - |
| 1777468649 | 12.22° C | 91% | 1008.8 hPa | 0 mm | - | 12 W/m² | - |
| 1777468353 | 12.22° C | 91% | 1008.8 hPa | 0 mm | - | 21 W/m² | - |
| 1777467451 | 12.22° C | 91% | 1008.8 hPa | 0 mm | - | 84 W/m² | - |
* Rain latest hour (hover to see other rain measurements)
** Current wind speed in m/s (hover to see current wind gust speed)